createdAt,value
2018-05-25T00:00:00.814Z,18.97
2018-05-25T00:00:37.561Z,18.99
2018-05-25T00:01:14.858Z,18.99
2018-05-25T00:01:50.257Z,19.01
2018-05-25T00:02:25.688Z,18.99
2018-05-25T00:03:00.979Z,18.97
2018-05-25T00:03:36.311Z,18.97
2018-05-25T00:04:11.808Z,19.01
2018-05-25T00:04:47.255Z,19.08
2018-05-25T00:05:22.982Z,19.15
2018-05-25T00:05:59.072Z,19.11
2018-05-25T00:06:34.473Z,19.05
2018-05-25T00:07:09.807Z,18.98
2018-05-25T00:07:45.291Z,19.01
2018-05-25T00:08:20.829Z,19.02
2018-05-25T00:08:56.224Z,19.10
2018-05-25T00:09:31.479Z,19.11
2018-05-25T00:10:06.999Z,19.01
2018-05-25T00:10:43.781Z,19.02
2018-05-25T00:11:19.213Z,19.13
2018-05-25T00:11:54.245Z,19.08
2018-05-25T00:12:29.648Z,19.02
2018-05-25T00:13:04.979Z,19.02
2018-05-25T00:13:40.479Z,19.01
2018-05-25T00:14:15.798Z,19.08
2018-05-25T00:14:51.004Z,19.10
2018-05-25T00:15:26.477Z,18.98
2018-05-25T00:16:01.997Z,19.02
2018-05-25T00:16:38.898Z,18.98
2018-05-25T00:17:14.424Z,19.05
2018-05-25T00:17:49.654Z,18.98
2018-05-25T00:18:24.756Z,19.10
2018-05-25T00:19:00.506Z,19.06
2018-05-25T00:19:36.011Z,19.06
2018-05-25T00:20:11.449Z,19.06
2018-05-25T00:20:49.503Z,19.01
2018-05-25T00:21:25.046Z,18.98
2018-05-25T00:22:00.546Z,19.11
2018-05-25T00:22:36.218Z,19.02
2018-05-25T00:23:11.506Z,19.08
2018-05-25T00:23:47.452Z,18.98
2018-05-25T00:24:22.867Z,19.08
2018-05-25T00:24:58.401Z,19.02
2018-05-25T00:25:33.753Z,18.92
2018-05-25T00:26:09.880Z,19.05
2018-05-25T00:26:46.181Z,18.98
2018-05-25T00:27:21.560Z,19.02
2018-05-25T00:27:57.214Z,19.10
2018-05-25T00:28:32.674Z,18.98
2018-05-25T00:29:07.963Z,18.99
2018-05-25T00:29:43.513Z,19.08
2018-05-25T00:30:18.961Z,19.10
2018-05-25T00:30:56.531Z,19.01
2018-05-25T00:31:31.838Z,19.10
2018-05-25T00:32:07.188Z,18.99
2018-05-25T00:32:44.499Z,19.10
2018-05-25T00:33:19.744Z,18.95
2018-05-25T00:33:55.062Z,19.01
2018-05-25T00:34:30.395Z,18.99
2018-05-25T00:35:05.705Z,19.06
2018-05-25T00:35:41.751Z,18.99
2018-05-25T00:36:17.052Z,18.99
2018-05-25T00:36:52.693Z,19.01
2018-05-25T00:37:28.673Z,18.99
2018-05-25T00:38:03.628Z,19.05
2018-05-25T00:38:38.929Z,19.06
2018-05-25T00:39:14.479Z,18.99
2018-05-25T00:39:50.872Z,19.06
2018-05-25T00:40:26.234Z,19.06
2018-05-25T00:41:02.244Z,18.98
2018-05-25T00:41:37.478Z,19.02
2018-05-25T00:42:12.785Z,18.98
2018-05-25T00:42:48.134Z,19.06
2018-05-25T00:43:23.360Z,19.05
2018-05-25T00:43:58.692Z,19.11
2018-05-25T00:44:34.085Z,19.01
2018-05-25T00:45:09.315Z,19.02
2018-05-25T00:45:44.461Z,19.08
2018-05-25T00:46:19.990Z,18.95
2018-05-25T00:46:55.202Z,18.95
2018-05-25T00:47:30.535Z,19.02
2018-05-25T00:48:05.963Z,19.02
2018-05-25T00:48:41.510Z,19.01
2018-05-25T00:49:18.830Z,18.95
2018-05-25T00:49:54.062Z,19.02
2018-05-25T00:50:29.317Z,18.99
2018-05-25T00:51:04.524Z,19.02
2018-05-25T00:51:40.041Z,18.98
2018-05-25T00:52:15.477Z,18.95
2018-05-25T00:52:51.226Z,18.99
2018-05-25T00:53:26.566Z,19.02
2018-05-25T00:54:02.189Z,18.86
2018-05-25T00:54:37.518Z,18.90
2018-05-25T00:55:12.909Z,18.98
2018-05-25T00:55:49.864Z,18.90
2018-05-25T00:56:24.983Z,18.99
2018-05-25T00:57:00.184Z,18.92
2018-05-25T00:57:36.538Z,18.99
2018-05-25T00:58:11.971Z,18.92
2018-05-25T00:58:49.975Z,18.94
2018-05-25T00:59:25.222Z,18.99
2018-05-25T01:00:00.648Z,19.02
2018-05-25T01:00:36.683Z,18.95
2018-05-25T01:01:12.770Z,18.99
2018-05-25T01:01:50.307Z,18.99
2018-05-25T01:02:25.740Z,18.92
2018-05-25T01:03:01.094Z,18.95
2018-05-25T01:03:37.522Z,18.95
2018-05-25T01:04:12.876Z,18.98
2018-05-25T01:04:48.394Z,18.94
2018-05-25T01:05:24.167Z,18.92
2018-05-25T01:06:00.173Z,19.11
2018-05-25T01:06:35.819Z,18.97
2018-05-25T01:07:11.438Z,18.94
2018-05-25T01:07:47.101Z,19.11
2018-05-25T01:08:22.538Z,19.05
2018-05-25T01:08:57.963Z,19.05
2018-05-25T01:09:33.115Z,19.01
2018-05-25T01:10:08.460Z,19.05
2018-05-25T01:10:47.514Z,18.98
2018-05-25T01:11:23.150Z,19.01
2018-05-25T01:12:02.250Z,19.05
2018-05-25T01:12:38.565Z,18.98
2018-05-25T01:13:14.261Z,18.94
2018-05-25T01:13:49.589Z,18.95
2018-05-25T01:14:25.122Z,18.94
2018-05-25T01:15:00.472Z,18.94
2018-05-25T01:15:36.293Z,19.01
2018-05-25T01:16:11.812Z,18.95
2018-05-25T01:16:49.042Z,18.98
2018-05-25T01:17:24.363Z,18.95
2018-05-25T01:17:59.707Z,18.97
2018-05-25T01:18:35.319Z,18.94
2018-05-25T01:19:10.924Z,18.91
2018-05-25T01:19:46.390Z,18.94
2018-05-25T01:20:21.453Z,18.86
2018-05-25T01:20:57.069Z,18.83
2018-05-25T01:21:32.777Z,18.90
2018-05-25T01:22:08.103Z,18.99
2018-05-25T01:22:46.108Z,18.94
2018-05-25T01:23:21.322Z,18.92
2018-05-25T01:23:56.574Z,18.95
2018-05-25T01:24:32.010Z,18.97
2018-05-25T01:25:07.317Z,18.94
2018-05-25T01:25:42.604Z,19.02
2018-05-25T01:26:18.427Z,18.98
2018-05-25T01:26:53.776Z,18.95
2018-05-25T01:27:29.374Z,18.98
2018-05-25T01:28:05.321Z,18.94
2018-05-25T01:28:41.049Z,18.98
2018-05-25T01:29:16.176Z,18.86
2018-05-25T01:29:51.372Z,19.02
2018-05-25T01:30:26.730Z,18.91
2018-05-25T01:31:02.306Z,18.90
2018-05-25T01:31:37.670Z,19.02
2018-05-25T01:32:16.096Z,18.90
2018-05-25T01:32:52.192Z,18.94
2018-05-25T01:33:27.791Z,18.99
2018-05-25T01:34:05.155Z,18.90
2018-05-25T01:34:44.643Z,18.90
2018-05-25T01:35:19.939Z,18.86
2018-05-25T01:35:55.512Z,18.91
2018-05-25T01:36:30.766Z,18.94
2018-05-25T01:37:06.164Z,18.86
2018-05-25T01:37:41.418Z,18.84
2018-05-25T01:38:16.813Z,18.80
2018-05-25T01:38:52.045Z,18.86
2018-05-25T01:39:27.299Z,18.87
2018-05-25T01:40:02.821Z,18.92
2018-05-25T01:40:38.755Z,18.87
2018-05-25T01:41:14.078Z,18.94
2018-05-25T01:41:49.484Z,18.90
2018-05-25T01:42:24.745Z,18.95
2018-05-25T01:43:00.347Z,18.83
2018-05-25T01:43:35.573Z,18.80
2018-05-25T01:44:10.673Z,18.90
2018-05-25T01:44:45.943Z,18.84
2018-05-25T01:45:21.473Z,18.86
2018-05-25T01:45:59.514Z,18.90
2018-05-25T01:46:34.813Z,18.79
2018-05-25T01:47:10.043Z,18.80
2018-05-25T01:47:45.264Z,18.86
2018-05-25T01:48:20.900Z,18.91
2018-05-25T01:48:56.214Z,18.86
2018-05-25T01:49:31.363Z,18.83
2018-05-25T01:50:06.796Z,18.86
2018-05-25T01:50:42.056Z,18.82
2018-05-25T01:51:17.471Z,18.87
2018-05-25T01:51:52.726Z,18.87
2018-05-25T01:52:27.848Z,18.91
2018-05-25T01:53:03.402Z,18.86
2018-05-25T01:53:38.619Z,18.90
2018-05-25T01:54:13.977Z,18.76
2018-05-25T01:54:49.481Z,18.87
2018-05-25T01:55:24.842Z,18.92
2018-05-25T01:56:00.240Z,18.94
2018-05-25T01:56:35.586Z,18.87
2018-05-25T01:57:10.896Z,18.87
2018-05-25T01:57:46.634Z,18.95
2018-05-25T01:58:22.034Z,18.94
2018-05-25T01:58:59.472Z,18.84
2018-05-25T01:59:35.093Z,18.82
2018-05-25T02:00:10.770Z,18.82
2018-05-25T02:00:50.004Z,18.90
2018-05-25T02:01:27.025Z,18.79
2018-05-25T02:02:03.952Z,18.84
2018-05-25T02:02:40.653Z,18.82
2018-05-25T02:03:16.044Z,18.82
2018-05-25T02:03:51.294Z,18.82
2018-05-25T02:04:26.689Z,18.83
2018-05-25T02:05:04.014Z,18.77
2018-05-25T02:05:41.939Z,18.82
2018-05-25T02:06:17.463Z,18.67
2018-05-25T02:06:52.897Z,18.77
2018-05-25T02:07:28.035Z,18.73
2018-05-25T02:08:03.427Z,18.74
2018-05-25T02:08:38.882Z,18.82
2018-05-25T02:09:14.342Z,18.68
2018-05-25T02:09:50.079Z,18.68
2018-05-25T02:10:25.638Z,18.79
2018-05-25T02:11:04.083Z,18.62
2018-05-25T02:11:39.719Z,18.64
2018-05-25T02:12:15.060Z,18.67
2018-05-25T02:12:50.671Z,18.72
2018-05-25T02:13:26.126Z,18.73
2018-05-25T02:14:01.549Z,18.57
2018-05-25T02:14:37.081Z,18.65
2018-05-25T02:15:12.506Z,18.67
2018-05-25T02:15:47.861Z,18.73
2018-05-25T02:16:23.374Z,18.73
2018-05-25T02:16:59.007Z,18.59
2018-05-25T02:17:34.437Z,18.68
2018-05-25T02:18:10.034Z,18.68
2018-05-25T02:18:45.130Z,18.64
2018-05-25T02:19:20.550Z,18.64
2018-05-25T02:19:55.965Z,18.61
2018-05-25T02:20:31.549Z,18.72
2018-05-25T02:21:08.747Z,18.64
2018-05-25T02:21:43.886Z,18.68
2018-05-25T02:22:19.508Z,18.72
2018-05-25T02:22:55.081Z,18.68
2018-05-25T02:23:30.483Z,18.64
2018-05-25T02:24:05.658Z,18.70
2018-05-25T02:24:42.065Z,18.59
2018-05-25T02:25:17.809Z,18.68
2018-05-25T02:25:53.140Z,18.65
2018-05-25T02:26:29.255Z,18.61
2018-05-25T02:27:04.561Z,18.62
2018-05-25T02:27:40.420Z,18.67
2018-05-25T02:28:15.814Z,18.65
2018-05-25T02:28:52.242Z,18.65
2018-05-25T02:29:27.446Z,18.70
2018-05-25T02:30:02.971Z,18.70
2018-05-25T02:30:40.116Z,18.73
2018-05-25T02:31:15.353Z,18.68
2018-05-25T02:31:50.965Z,18.73
2018-05-25T02:32:25.992Z,18.72
2018-05-25T02:33:01.317Z,18.64
2018-05-25T02:33:36.953Z,18.68
2018-05-25T02:34:12.394Z,18.72
2018-05-25T02:34:49.217Z,18.67
2018-05-25T02:35:24.738Z,18.67
2018-05-25T02:36:00.005Z,18.65
2018-05-25T02:36:36.595Z,18.65
2018-05-25T02:37:11.839Z,18.64
2018-05-25T02:37:48.069Z,18.72
2018-05-25T02:38:23.589Z,18.64
2018-05-25T02:38:58.779Z,18.79
2018-05-25T02:39:34.126Z,18.73
2018-05-25T02:40:09.828Z,18.76
2018-05-25T02:40:51.515Z,18.74
2018-05-25T02:41:26.903Z,18.73
2018-05-25T02:42:02.161Z,18.76
2018-05-25T02:42:40.177Z,18.67
2018-05-25T02:43:15.693Z,18.68
2018-05-25T02:43:51.495Z,18.68
2018-05-25T02:44:30.368Z,18.67
2018-05-25T02:45:05.810Z,18.72
2018-05-25T02:45:42.159Z,18.76
2018-05-25T02:46:17.551Z,18.79
2018-05-25T02:46:52.904Z,18.72
2018-05-25T02:47:29.692Z,18.72
2018-05-25T02:48:05.215Z,18.70
2018-05-25T02:48:43.019Z,18.82
2018-05-25T02:49:18.181Z,18.74
2018-05-25T02:49:53.365Z,18.73
2018-05-25T02:50:28.722Z,18.72
2018-05-25T02:51:04.205Z,18.68
2018-05-25T02:51:39.750Z,18.72
2018-05-25T02:52:17.056Z,18.73
2018-05-25T02:52:54.186Z,18.70
2018-05-25T02:53:29.492Z,18.74
2018-05-25T02:54:04.950Z,18.67
2018-05-25T02:54:42.368Z,18.65
2018-05-25T02:55:17.707Z,18.73
2018-05-25T02:55:53.138Z,18.73
2018-05-25T02:56:28.871Z,18.67
2018-05-25T02:57:04.238Z,18.64
2018-05-25T02:57:40.450Z,18.68
2018-05-25T02:58:15.771Z,18.65
2018-05-25T02:58:52.539Z,18.58
2018-05-25T02:59:27.725Z,18.65
2018-05-25T03:00:03.346Z,18.64
2018-05-25T03:00:40.482Z,18.52
2018-05-25T03:01:15.916Z,18.55
2018-05-25T03:01:53.427Z,18.54
2018-05-25T03:02:29.010Z,18.62
2018-05-25T03:03:04.443Z,18.61
2018-05-25T03:03:40.399Z,18.61
2018-05-25T03:04:15.698Z,18.52
2018-05-25T03:04:51.140Z,18.54
2018-05-25T03:05:26.397Z,18.47
2018-05-25T03:06:01.785Z,18.58
2018-05-25T03:06:36.993Z,18.55
2018-05-25T03:07:12.425Z,18.50
2018-05-25T03:07:47.707Z,18.46
2018-05-25T03:08:22.951Z,18.55
2018-05-25T03:08:58.547Z,18.47
2018-05-25T03:09:33.776Z,18.46
2018-05-25T03:10:08.955Z,18.46
2018-05-25T03:10:44.327Z,18.54
2018-05-25T03:11:19.548Z,18.43
2018-05-25T03:11:54.878Z,18.40
2018-05-25T03:12:30.204Z,18.39
2018-05-25T03:13:05.458Z,18.42
2018-05-25T03:13:40.856Z,18.39
2018-05-25T03:14:16.491Z,18.33
2018-05-25T03:14:52.125Z,18.37
2018-05-25T03:15:27.594Z,18.39
2018-05-25T03:16:02.812Z,18.54
2018-05-25T03:16:38.153Z,18.44
2018-05-25T03:17:13.549Z,18.54
2018-05-25T03:17:51.506Z,18.36
2018-05-25T03:18:27.025Z,18.29
2018-05-25T03:19:02.364Z,18.37
2018-05-25T03:19:37.769Z,18.29
2018-05-25T03:20:13.275Z,18.34
2018-05-25T03:20:49.808Z,18.31
2018-05-25T03:21:25.038Z,18.27
2018-05-25T03:22:00.372Z,18.28
2018-05-25T03:22:35.987Z,18.29
2018-05-25T03:23:11.597Z,18.36
2018-05-25T03:23:47.134Z,18.31
2018-05-25T03:24:22.337Z,18.33
2018-05-25T03:24:58.604Z,18.28
2018-05-25T03:25:34.021Z,18.34
2018-05-25T03:26:09.357Z,18.36
2018-05-25T03:26:44.525Z,18.34
2018-05-25T03:27:20.058Z,18.36
2018-05-25T03:27:55.539Z,18.33
2018-05-25T03:28:31.005Z,18.36
2018-05-25T03:29:06.585Z,18.33
2018-05-25T03:29:42.445Z,18.36
2018-05-25T03:30:17.576Z,18.34
2018-05-25T03:30:55.347Z,18.34
2018-05-25T03:31:30.561Z,18.40
2018-05-25T03:32:05.929Z,18.36
2018-05-25T03:32:41.312Z,18.43
2018-05-25T03:33:16.768Z,18.33
2018-05-25T03:33:52.066Z,18.33
2018-05-25T03:34:27.422Z,18.33
2018-05-25T03:35:02.732Z,18.39
2018-05-25T03:35:38.421Z,18.34
2018-05-25T03:36:14.552Z,18.33
2018-05-25T03:36:49.787Z,18.31
2018-05-25T03:37:25.187Z,18.43
2018-05-25T03:38:00.624Z,18.40
2018-05-25T03:38:36.232Z,18.36
2018-05-25T03:39:11.557Z,18.39
2018-05-25T03:39:47.099Z,18.39
2018-05-25T03:40:22.488Z,18.42
2018-05-25T03:40:58.195Z,18.36
2018-05-25T03:41:33.644Z,18.34
2018-05-25T03:42:09.137Z,18.39
2018-05-25T03:42:44.775Z,18.31
2018-05-25T03:43:20.483Z,18.31
2018-05-25T03:43:55.917Z,18.33
2018-05-25T03:44:31.328Z,18.33
2018-05-25T03:45:06.670Z,18.27
2018-05-25T03:45:43.434Z,18.33
2018-05-25T03:46:18.650Z,18.25
2018-05-25T03:46:54.070Z,18.33
2018-05-25T03:47:29.504Z,18.36
2018-05-25T03:48:04.813Z,18.28
2018-05-25T03:48:40.231Z,18.36
2018-05-25T03:49:15.546Z,18.42
2018-05-25T03:49:50.897Z,18.37
2018-05-25T03:50:26.143Z,18.37
2018-05-25T03:51:01.561Z,18.36
2018-05-25T03:51:36.960Z,18.34
2018-05-25T03:52:12.920Z,18.34
2018-05-25T03:52:48.026Z,18.43
2018-05-25T03:53:23.768Z,18.36
2018-05-25T03:53:58.995Z,18.36
2018-05-25T03:54:34.633Z,18.34
2018-05-25T03:55:09.955Z,18.43
2018-05-25T03:55:45.409Z,18.50
2018-05-25T03:56:20.694Z,18.36
2018-05-25T03:56:55.925Z,18.44
2018-05-25T03:57:31.029Z,18.49
2018-05-25T03:58:06.069Z,18.50
2018-05-25T03:58:41.800Z,18.52
2018-05-25T03:59:17.217Z,18.49
2018-05-25T03:59:54.055Z,18.46
2018-05-25T04:00:29.519Z,18.54
2018-05-25T04:01:04.818Z,18.52
2018-05-25T04:01:43.639Z,18.52
2018-05-25T04:02:18.736Z,18.50
2018-05-25T04:02:54.072Z,18.50
2018-05-25T04:03:29.394Z,18.49
2018-05-25T04:04:06.632Z,18.50
2018-05-25T04:04:42.230Z,18.58
2018-05-25T04:05:18.712Z,18.57
2018-05-25T04:05:54.127Z,18.70
2018-05-25T04:06:29.595Z,18.62
2018-05-25T04:07:05.799Z,18.64
2018-05-25T04:07:41.373Z,18.64
2018-05-25T04:08:16.716Z,18.59
2018-05-25T04:08:51.947Z,18.68
2018-05-25T04:09:27.268Z,18.59
2018-05-25T04:10:02.794Z,18.67
2018-05-25T04:10:38.124Z,18.68
2018-05-25T04:11:13.463Z,18.64
2018-05-25T04:11:52.169Z,18.64
2018-05-25T04:12:27.303Z,18.64
2018-05-25T04:13:03.155Z,18.72
2018-05-25T04:13:38.492Z,18.73
2018-05-25T04:14:13.935Z,18.68
2018-05-25T04:14:49.273Z,18.72
2018-05-25T04:15:24.315Z,18.68
2018-05-25T04:15:59.946Z,18.73
2018-05-25T04:16:35.344Z,18.61
2018-05-25T04:17:10.777Z,18.67
2018-05-25T04:17:46.567Z,18.73
2018-05-25T04:18:21.914Z,18.73
2018-05-25T04:18:57.167Z,18.70
2018-05-25T04:19:32.393Z,18.74
2018-05-25T04:20:08.042Z,18.70
2018-05-25T04:20:45.582Z,18.77
2018-05-25T04:21:20.869Z,18.64
2018-05-25T04:21:56.392Z,18.68
2018-05-25T04:22:31.781Z,18.73
2018-05-25T04:23:07.241Z,18.68
2018-05-25T04:23:42.837Z,18.64
2018-05-25T04:24:18.264Z,18.74
2018-05-25T04:24:54.029Z,18.61
2018-05-25T04:25:29.609Z,18.70
2018-05-25T04:26:04.911Z,18.67
2018-05-25T04:26:40.340Z,18.70
2018-05-25T04:27:15.748Z,18.72
2018-05-25T04:27:54.093Z,18.67
2018-05-25T04:28:29.387Z,18.67
2018-05-25T04:29:05.044Z,18.74
2018-05-25T04:29:40.445Z,18.68
2018-05-25T04:30:15.678Z,18.67
2018-05-25T04:30:50.900Z,18.67
2018-05-25T04:31:26.155Z,18.68
2018-05-25T04:32:01.556Z,18.74
2018-05-25T04:32:37.180Z,18.72
2018-05-25T04:33:12.419Z,18.72
2018-05-25T04:33:47.799Z,18.65
2018-05-25T04:34:23.396Z,18.73
2018-05-25T04:34:58.641Z,18.68
2018-05-25T04:35:34.416Z,18.70
2018-05-25T04:36:09.772Z,18.74
2018-05-25T04:36:46.957Z,18.77
2018-05-25T04:37:22.113Z,18.74
2018-05-25T04:37:59.214Z,18.72
2018-05-25T04:38:36.522Z,18.65
2018-05-25T04:39:11.728Z,18.79
2018-05-25T04:39:49.872Z,18.74
2018-05-25T04:40:28.617Z,18.82
2018-05-25T04:41:03.741Z,18.70
2018-05-25T04:41:39.715Z,18.74
2018-05-25T04:42:14.970Z,18.83
2018-05-25T04:42:51.569Z,18.82
2018-05-25T04:43:26.705Z,18.84
2018-05-25T04:44:02.043Z,18.90
2018-05-25T04:44:37.468Z,18.87
2018-05-25T04:45:13.104Z,18.83
2018-05-25T04:45:48.660Z,18.76
2018-05-25T04:46:24.060Z,18.84
2018-05-25T04:46:59.400Z,18.77
2018-05-25T04:47:35.120Z,18.82
2018-05-25T04:48:11.645Z,18.83
2018-05-25T04:48:49.343Z,18.76
2018-05-25T04:49:24.973Z,18.91
2018-05-25T04:50:01.557Z,18.90
2018-05-25T04:50:37.066Z,18.94
2018-05-25T04:51:12.354Z,18.91
2018-05-25T04:51:47.616Z,18.92
2018-05-25T04:52:22.989Z,19.02
2018-05-25T04:52:59.694Z,18.83
2018-05-25T04:53:35.726Z,18.95
2018-05-25T04:54:12.359Z,18.97
2018-05-25T04:54:47.952Z,18.95
2018-05-25T04:55:23.421Z,18.91
2018-05-25T04:55:59.933Z,18.84
2018-05-25T04:56:36.153Z,18.94
2018-05-25T04:57:13.283Z,18.92
2018-05-25T04:57:49.218Z,18.95
2018-05-25T04:58:24.625Z,19.06
2018-05-25T04:59:01.360Z,18.97
2018-05-25T04:59:37.107Z,19.10
2018-05-25T05:00:12.710Z,19.08
2018-05-25T05:00:50.243Z,19.08
2018-05-25T05:01:25.697Z,19.02
2018-05-25T05:02:01.231Z,18.98
2018-05-25T05:02:36.649Z,19.05
2018-05-25T05:03:11.939Z,18.94
2018-05-25T05:03:48.056Z,18.97
2018-05-25T05:04:23.071Z,19.01
2018-05-25T05:05:02.456Z,19.08
2018-05-25T05:05:37.625Z,19.06
2018-05-25T05:06:12.825Z,18.94
2018-05-25T05:06:48.722Z,19.02
2018-05-25T05:07:23.936Z,19.02
2018-05-25T05:07:59.330Z,18.97
2018-05-25T05:08:34.863Z,19.02
2018-05-25T05:09:10.461Z,19.10
2018-05-25T05:09:46.509Z,19.10
2018-05-25T05:10:22.139Z,19.06
2018-05-25T05:11:00.694Z,18.98
2018-05-25T05:11:37.300Z,19.08
2018-05-25T05:12:12.509Z,18.97
2018-05-25T05:12:47.694Z,19.10
2018-05-25T05:13:23.221Z,19.01
2018-05-25T05:13:58.816Z,18.98
2018-05-25T05:14:34.456Z,18.99
2018-05-25T05:15:09.978Z,19.01
2018-05-25T05:15:45.928Z,19.05
2018-05-25T05:16:23.528Z,19.06
2018-05-25T05:16:58.664Z,19.08
2018-05-25T05:17:34.056Z,19.10
2018-05-25T05:18:09.375Z,19.08
2018-05-25T05:18:44.908Z,19.10
2018-05-25T05:19:20.168Z,19.10
2018-05-25T05:19:58.497Z,19.14
2018-05-25T05:20:33.533Z,19.21
2018-05-25T05:21:09.574Z,19.18
2018-05-25T05:21:44.916Z,19.11
2018-05-25T05:22:21.121Z,19.20
2018-05-25T05:22:57.897Z,19.20
2018-05-25T05:23:33.263Z,19.23
2018-05-25T05:24:08.702Z,19.24
2018-05-25T05:24:44.216Z,19.25
2018-05-25T05:25:20.197Z,19.17
2018-05-25T05:25:55.443Z,19.23
2018-05-25T05:26:30.815Z,19.08
2018-05-25T05:27:06.423Z,19.20
2018-05-25T05:27:41.781Z,19.23
2018-05-25T05:28:17.524Z,19.21
2018-05-25T05:28:52.566Z,19.18
2018-05-25T05:29:27.798Z,19.11
2018-05-25T05:30:06.323Z,19.13
2018-05-25T05:30:43.167Z,19.20
2018-05-25T05:31:21.599Z,19.28
2018-05-25T05:31:56.727Z,19.28
2018-05-25T05:32:32.584Z,19.24
2018-05-25T05:33:11.204Z,19.31
2018-05-25T05:33:48.831Z,19.23
2018-05-25T05:34:24.021Z,19.21
2018-05-25T05:35:01.157Z,19.17
2018-05-25T05:35:36.890Z,19.17
2018-05-25T05:36:12.615Z,19.21
2018-05-25T05:36:47.916Z,19.25
2018-05-25T05:37:23.354Z,19.29
2018-05-25T05:38:01.045Z,19.25
2018-05-25T05:38:37.798Z,19.28
2018-05-25T05:39:12.977Z,19.36
2018-05-25T05:39:50.149Z,19.29
2018-05-25T05:40:25.588Z,19.29
2018-05-25T05:41:04.161Z,19.28
2018-05-25T05:41:42.591Z,19.32
2018-05-25T05:42:18.020Z,19.24
2018-05-25T05:42:53.647Z,19.36
2018-05-25T05:43:29.103Z,19.46
2018-05-25T05:44:05.011Z,19.39
2018-05-25T05:44:43.710Z,19.35
2018-05-25T05:45:21.199Z,19.40
2018-05-25T05:45:56.826Z,19.40
2018-05-25T05:46:32.055Z,19.40
2018-05-25T05:47:11.082Z,19.43
2018-05-25T05:47:50.097Z,19.51
2018-05-25T05:48:25.736Z,19.54
2018-05-25T05:49:05.053Z,19.57
2018-05-25T05:51:41.738Z,19.78
2018-05-25T05:52:17.308Z,19.80
2018-05-25T05:52:52.622Z,19.84
2018-05-25T05:53:29.754Z,19.84
2018-05-25T05:54:05.349Z,19.91
2018-05-25T05:54:46.976Z,19.87
2018-05-25T05:55:22.298Z,19.95
2018-05-25T05:56:00.244Z,19.97
2018-05-25T05:56:38.030Z,19.93
2018-05-25T05:57:15.738Z,19.98
2018-05-25T05:57:54.732Z,19.97
2018-05-25T05:58:30.150Z,19.97
2018-05-25T05:59:05.439Z,19.91
2018-05-25T05:59:47.976Z,20.06
2018-05-25T06:00:23.302Z,20.10
2018-05-25T06:00:58.616Z,20.08
2018-05-25T06:01:33.907Z,20.02
2018-05-25T06:02:12.439Z,20.15
2018-05-25T06:02:51.729Z,20.10
2018-05-25T06:03:31.961Z,20.10
2018-05-25T06:04:07.496Z,20.15
2018-05-25T06:04:43.143Z,20.18
2018-05-25T06:05:19.673Z,20.10
2018-05-25T06:05:57.322Z,20.13
2018-05-25T06:06:32.611Z,20.27
2018-05-25T06:07:08.326Z,20.31
2018-05-25T06:07:43.634Z,20.34
2018-05-25T06:08:19.713Z,20.42
2018-05-25T06:08:55.193Z,20.38
2018-05-25T06:09:30.422Z,20.30
2018-05-25T06:10:07.844Z,20.42
2018-05-25T06:10:46.276Z,20.42
2018-05-25T06:11:21.865Z,20.39
2018-05-25T06:11:57.203Z,20.51
2018-05-25T06:12:32.700Z,20.42
2018-05-25T06:13:08.031Z,20.43
2018-05-25T06:13:43.128Z,20.43
2018-05-25T06:14:18.754Z,20.51
2018-05-25T06:14:54.151Z,20.47
2018-05-25T06:15:29.495Z,20.50
2018-05-25T06:16:05.084Z,20.49
2018-05-25T06:16:40.678Z,20.51
2018-05-25T06:17:15.905Z,20.58
2018-05-25T06:17:53.342Z,20.56
2018-05-25T06:18:29.024Z,20.53
2018-05-25T06:19:04.932Z,20.49
2018-05-25T06:19:40.442Z,20.56
2018-05-25T06:20:15.770Z,20.58
2018-05-25T06:20:51.218Z,20.66
2018-05-25T06:21:28.226Z,20.65
2018-05-25T06:22:03.647Z,20.74
2018-05-25T06:22:40.222Z,20.83
2018-05-25T06:23:15.316Z,20.72
2018-05-25T06:23:50.989Z,20.66
2018-05-25T06:24:26.301Z,20.64
2018-05-25T06:25:02.037Z,20.58
2018-05-25T06:25:38.762Z,20.72
2018-05-25T06:26:16.293Z,20.68
2018-05-25T06:26:54.298Z,20.74
2018-05-25T06:27:29.545Z,20.77
2018-05-25T06:28:04.758Z,20.80
2018-05-25T06:28:40.185Z,20.74
2018-05-25T06:29:15.479Z,20.77
2018-05-25T06:29:50.913Z,20.69
2018-05-25T06:30:26.233Z,20.72
2018-05-25T06:31:05.589Z,20.68
2018-05-25T06:31:40.878Z,20.71
2018-05-25T06:32:20.129Z,20.64
2018-05-25T06:32:55.360Z,20.69
2018-05-25T06:33:30.685Z,20.87
2018-05-25T06:34:06.124Z,20.79
2018-05-25T06:34:42.004Z,20.76
2018-05-25T06:35:17.742Z,20.72
2018-05-25T06:35:56.442Z,20.72
2018-05-25T06:36:37.454Z,20.80
2018-05-25T06:37:15.985Z,20.77
2018-05-25T06:37:51.303Z,20.72
2018-05-25T06:38:28.945Z,20.61
2018-05-25T06:39:04.348Z,20.65
2018-05-25T06:39:39.903Z,20.66
2018-05-25T06:40:15.379Z,20.61
2018-05-25T06:40:57.526Z,20.47
2018-05-25T06:41:32.856Z,20.58
2018-05-25T06:44:10.460Z,20.49
2018-05-25T06:44:45.835Z,20.41
2018-05-25T06:45:21.970Z,20.39
2018-05-25T06:46:00.484Z,20.54
2018-05-25T06:46:36.120Z,20.53
2018-05-25T06:47:11.271Z,20.53
2018-05-25T06:47:46.696Z,20.59
2018-05-25T06:48:21.873Z,20.72
2018-05-25T06:49:00.976Z,20.72
2018-05-25T06:49:39.271Z,20.58
2018-05-25T06:50:16.393Z,20.62
2018-05-25T06:50:51.797Z,20.65
2018-05-25T06:51:27.501Z,20.65
2018-05-25T06:52:03.115Z,20.59
2018-05-25T06:52:39.647Z,20.71
2018-05-25T06:53:15.040Z,20.77
2018-05-25T06:53:50.410Z,20.81
2018-05-25T06:54:25.588Z,20.96
2018-05-25T06:55:04.032Z,21.13
2018-05-25T06:58:18.290Z,21.26
2018-05-25T06:58:53.799Z,21.24
2018-05-25T06:59:29.182Z,21.17
2018-05-25T07:00:04.499Z,21.20
2018-05-25T07:00:42.241Z,21.08
2018-05-25T07:01:17.465Z,21.11
2018-05-25T07:01:56.668Z,21.24
2018-05-25T07:02:34.794Z,21.17
2018-05-25T07:03:10.185Z,21.09
2018-05-25T07:03:45.418Z,21.16
2018-05-25T07:04:21.017Z,21.14
2018-05-25T07:05:02.762Z,21.27
2018-05-25T07:05:40.695Z,21.26
2018-05-25T07:06:21.705Z,21.16
2018-05-25T07:06:57.002Z,21.17
2018-05-25T07:07:32.361Z,21.17
2018-05-25T07:08:07.773Z,21.13
2018-05-25T07:08:46.803Z,21.17
2018-05-25T07:09:22.288Z,21.20
2018-05-25T07:09:57.718Z,21.13
2018-05-25T07:10:33.058Z,21.17
2018-05-25T07:11:09.029Z,21.09
2018-05-25T07:11:47.335Z,21.17
2018-05-25T07:12:23.859Z,21.21
2018-05-25T07:12:59.435Z,21.27
2018-05-25T07:13:34.956Z,21.27
2018-05-25T07:14:10.601Z,21.35
2018-05-25T07:14:45.836Z,21.42
2018-05-25T07:15:21.298Z,21.45
2018-05-25T07:18:35.759Z,22.02
2018-05-25T07:19:11.199Z,22.13
2018-05-25T07:19:46.588Z,22.20
2018-05-25T07:20:22.213Z,22.39
2018-05-25T07:20:58.829Z,22.56
2018-05-25T07:21:37.312Z,22.57
2018-05-25T07:22:13.666Z,22.65
2018-05-25T07:22:49.377Z,22.75
2018-05-25T07:23:24.662Z,22.97
2018-05-25T07:24:00.025Z,23.02
2018-05-25T07:24:35.372Z,23.04
2018-05-25T07:25:10.683Z,23.15
2018-05-25T07:25:47.702Z,23.32
2018-05-25T07:26:23.029Z,23.31
2018-05-25T07:26:58.290Z,23.14
2018-05-25T07:27:33.893Z,23.29
2018-05-25T07:28:09.498Z,23.34
2018-05-25T07:28:45.212Z,23.35
2018-05-25T07:29:20.614Z,23.34
2018-05-25T07:29:55.977Z,23.47
2018-05-25T07:30:31.289Z,23.57
2018-05-25T07:31:06.690Z,23.64
2018-05-25T07:31:41.886Z,23.52
2018-05-25T07:32:17.319Z,23.65
2018-05-25T07:32:54.733Z,23.72
2018-05-25T07:33:30.056Z,23.87
2018-05-25T07:34:11.561Z,23.90
2018-05-25T07:34:47.130Z,24.00
2018-05-25T07:35:25.580Z,24.17
2018-05-25T07:36:04.120Z,24.13
2018-05-25T07:36:42.107Z,24.08
2018-05-25T07:37:17.675Z,24.26
2018-05-25T07:37:55.794Z,24.34
2018-05-25T07:38:31.130Z,24.32
2018-05-25T07:39:06.649Z,24.17
2018-05-25T07:39:42.166Z,24.23
2018-05-25T07:40:20.070Z,24.38
2018-05-25T07:41:00.206Z,24.27
2018-05-25T07:41:35.455Z,24.45
2018-05-25T07:42:10.820Z,24.61
2018-05-25T07:42:47.351Z,24.71
2018-05-25T07:43:24.017Z,24.56
2018-05-25T07:43:59.619Z,24.73
2018-05-25T07:44:35.175Z,24.82
2018-05-25T07:45:10.587Z,24.87
2018-05-25T07:45:46.700Z,24.82
2018-05-25T07:46:24.111Z,24.75
2018-05-25T07:47:04.641Z,24.77
2018-05-25T07:47:40.169Z,24.95
2018-05-25T07:48:15.811Z,24.95
2018-05-25T07:48:52.913Z,25.01
2018-05-25T07:49:28.441Z,25.20
2018-05-25T07:50:04.148Z,25.00
2018-05-25T07:50:40.523Z,24.85
2018-05-25T07:51:17.965Z,24.88
2018-05-25T07:51:53.214Z,24.85